RJTL(METAR)
02/28 07:00
METAR RJTL 272200Z 01007KT 330V040 9999 FEW020 BKN045 03/M04 Q1026
RMK 1CU020 6SC045 A3030=
戻る
トップページへ戻る
IMOC Co,.Ltd.